CCGS Griffon — CGDS — position and weather

sailwx.info

Track history (hours):
 
Tides and Currents Weather Stations Pressure Air Temp Water Temp Dewpoint Dewpoint Depression Visibility Wind Speed Wind Dir Waves Ship Positions

CCGS Griffon (Canada)

Light Icebreaker - Major Navaids Tender

Last reported at 2018-Feb-22 08:00 UTC. Time now 2018-Feb-22 09:07 UTC.
Position N 42°48' W 080°00'.

Length 71.32 m; beam 14.94 m; draft 4.7 m.

Type: SAR. MMSI: 316286000.

Wind from 020 at 9 knots

Air temperature -0.9 ° C
Dewpoint -1.2 ° C

Date/timePositionNaut miles runAvg speedWind from/ knotsBaromVisibWave heightAir tempDewpointWater temp
2018-Feb-22 08:00N 42°48' W 080°00'0 0.0 020 / 9 -0.9-1.2
2018-Feb-22 07:00N 42°48' W 080°00'0 0.0 020 / 11 -0.9-1.4
2018-Feb-22 06:00N 42°48' W 080°00'0 0.0 010 / 11 -0.8-1.2
2018-Feb-22 05:00N 42°48' W 080°00'0 0.0 360 / 10 -0.6-1.2
2018-Feb-22 04:00N 42°48' W 080°00'0 0.0 010 / 10 -0.3-1.4
2018-Feb-22 03:00N 42°48' W 080°00'0 0.0 010 / 8 0.1-1.0
2018-Feb-22 02:00N 42°48' W 080°00'0 0.0 010 / 5 0.3-0.0
2018-Feb-22 01:00N 42°48' W 080°00'0 0.0 350 / 4 2.0 1.6
2018-Feb-22 00:00N 42°48' W 080°00'0 0.0 360 / 3 1.7 1.6
2018-Feb-21 23:00N 42°48' W 080°00'0 0.0 300 / 1 3.1 2.9
2018-Feb-21 22:00N 42°48' W 080°00'0 0.0 340 / 2 3.2 3.0
2018-Feb-21 21:00N 42°48' W 080°00'0 0.0 320 / 2 3.3 3.2
2018-Feb-21 20:00N 42°48' W 080°00'0 0.0 300 / 2 3.1 3.0
2018-Feb-21 19:00N 42°48' W 080°00'0 0.0 340 / 3 2.9 2.9
2018-Feb-21 18:00N 42°48' W 080°00'0 0.0 330 / 5 3.5 3.5
2018-Feb-21 17:00N 42°48' W 080°00'0 0.0 350 / 11 3.3 3.4
2018-Feb-21 16:00N 42°48' W 080°00'0 0.0 360 / 13 3.4 3.5
2018-Feb-21 15:00N 42°48' W 080°00'0 0.0 350 / 10 4.5 4.7
2018-Feb-21 14:00N 42°48' W 080°00'0 0.0 350 / 11 9.0 9.3
2018-Feb-21 13:00N 42°48' W 080°00'0 0.0 340 / 3 12.412.9
2018-Feb-21 12:00N 42°48' W 080°00'0 0.0 320 / 4 13.513.9
2018-Feb-21 11:00N 42°48' W 080°00'0 0.0 280 / 8 7.1 7.4
2018-Feb-21 10:00N 42°48' W 080°00'0 0.0 240 / 3 5.4 5.6
2018-Feb-21 09:00N 42°48' W 080°00'0 0.0 270 / 5 6.3 6.6
2018-Feb-21 08:00N 42°48' W 080°00'0 0.0 240 / 5 7.2 7.5
2018-Feb-21 07:00N 42°48' W 080°00'0 0.0 280 / 12 9.4 9.8
2018-Feb-21 06:00N 42°48' W 080°00'0 0.0 280 / 12 9.4 9.8
2018-Feb-21 05:00N 42°48' W 080°00'0 0.0 260 / 11 8.1 8.5
2018-Feb-21 04:00N 42°48' W 080°00'0 0.0 240 / 15 9.510.0
2018-Feb-21 03:00N 42°48' W 080°00'0 0.0 260 / 10 7.3 7.9
2018-Feb-21 02:00N 42°48' W 080°00'0 0.0 240 / 9 8.1 8.7 3.0
2018-Feb-21 01:00N 42°48' W 080°00'0 0.0 240 / 5 9.710.4 2.2
2018-Feb-21 00:00N 42°48' W 080°00'7 7.4 240 / 5 8.4 9.0 1.5
2018-Feb-20 23:00N 42°42' W 079°54'1110.7 220 / 16 8.6 9.1 1.5
2018-Feb-20 22:00N 42°48' W 079°42'7 7.4 240 / 14 6.3 6.7 1.5
2018-Feb-20 21:00N 42°54' W 079°36'0 0.0 250 / 16 7.4 7.8
2018-Feb-20 20:00N 42°54' W 079°36'0 0.0 240 / 14 6.7 7.1 1.6
2018-Feb-20 19:00N 42°54' W 079°36'0 0.0 240 / 15 7.1 7.4 1.5
2018-Feb-20 18:00N 42°54' W 079°36'6 6.0 240 / 11 9.2 9.5 1.4
2018-Feb-20 17:00N 42°48' W 079°36'0 0.0 260 / 14 6.2 6.5
2018-Feb-20 16:00N 42°48' W 079°36'0 0.0 220 / 9 8.0 8.3 1.4
2018-Feb-20 15:00N 42°48' W 079°36'0 0.0 240 / 10 6.8 7.1
2018-Feb-20 14:00N 42°48' W 079°36'0 0.0 200 / 5 7.5 7.7
2018-Feb-20 13:00N 42°48' W 079°36'0 0.0 240 / 7 6.9 7.1
2018-Feb-20 12:00N 42°48' W 079°36'0 0.0 260 / 11 6.1 6.3
2018-Feb-20 11:00N 42°48' W 079°36'0 0.0 260 / 10 5.7 5.9
2018-Feb-20 10:00N 42°48' W 079°36'0 0.0 200 / 4 7.2 7.4
2018-Feb-20 09:00N 42°48' W 079°36'0 0.0 210 / 2 6.1 6.3
2018-Feb-20 08:00N 42°48' W 079°36'0 0.0 200 / 4 7.2 7.3
2018-Feb-20 07:00N 42°48' W 079°36'0 0.0 210 / 5 7.2 7.4
2018-Feb-20 06:00N 42°48' W 079°36'0 0.0 230 / 10 9.6 9.7
2018-Feb-20 05:00N 42°48' W 079°36'0 0.0 260 / 16 9.1 9.3
2018-Feb-20 04:00N 42°48' W 079°36'0 0.0 200 / 6 7.2 7.3
2018-Feb-20 03:00N 42°48' W 079°36'0 0.0 200 / 4 6.8 6.9
2018-Feb-20 02:00N 42°48' W 079°36'0 0.0 200 / 4 7.4 7.6
2018-Feb-20 01:00N 42°48' W 079°36'0 0.0 200 / 5 6.5 6.6
2018-Feb-20 00:00N 42°48' W 079°36'0 0.0 200 / 5 6.7 6.8
2018-Feb-19 23:00N 42°48' W 079°36'0 0.0 240 / 4 6.3 6.4
2018-Feb-19 22:00N 42°48' W 079°36'0 0.0 190 / 3 4.7 4.8
2018-Feb-19 21:00N 42°48' W 079°36'0 0.0 190 / 3 4.8 4.9
2018-Feb-19 20:00N 42°48' W 079°36'0 0.0 190 / 4 4.1 4.1 2.1
2018-Feb-19 19:00N 42°48' W 079°36'0 0.0 250 / 8 3.5 3.4 1.7
2018-Feb-19 18:00N 42°48' W 079°36'4 4.4 200 / 9 3.4 3.4 1.3
2018-Feb-19 17:00N 42°48' W 079°30'4 4.4 200 / 18 3.5 3.5 1.3
2018-Feb-19 16:00N 42°48' W 079°36'1110.7 200 / 14 3.0 2.9 1.3
2018-Feb-19 15:00N 42°42' W 079°48'1313.2 210 / 16 3.3 3.0 1.4
2018-Feb-19 14:00N 42°42' W 080°06'4 4.4 200 / 20 3.7 2.4 1.4
2018-Feb-19 13:00N 42°42' W 080°12'0 0.0 200 / 12 3.8 1.1
2018-Feb-19 12:00N 42°42' W 080°12'0 0.0 220 / 6 2.7-0.3
2018-Feb-19 11:00N 42°42' W 080°12'0 0.0 210 / 3 2.2-0.6
2018-Feb-19 10:00N 42°42' W 080°12'0 0.0 240 / 3 2.1-0.6
2018-Feb-19 09:00N 42°42' W 080°12'0 0.0 230 / 5 1.7-0.8
2018-Feb-19 08:00N 42°42' W 080°12'0 0.0 190 / 7 1.4-0.8
2018-Feb-19 07:00N 42°42' W 080°12'0 0.0 150 / 7 0.8-0.6
2018-Feb-19 06:00N 42°42' W 080°12'0 0.0 160 / 10 0.8-0.8
2018-Feb-19 05:00N 42°42' W 080°12'0 0.0 160 / 13 1.1-0.6
2018-Feb-19 04:00N 42°42' W 080°12'0 0.0 160 / 13 0.9-0.9
2018-Feb-19 03:00N 42°42' W 080°12'0 0.0 140 / 15 -0.0-1.3
2018-Feb-19 02:00N 42°42' W 080°12'0 0.0 140 / 16 -0.4-1.7
2018-Feb-19 01:00N 42°42' W 080°12'0 0.0 130 / 12 -0.2-0.8
2018-Feb-19 00:00N 42°42' W 080°12'0 0.0 130 / 6 -0.0-1.7
2018-Feb-18 23:00N 42°42' W 080°12'0 0.0 200 / 2 0.2-1.9 2.4
2018-Feb-18 22:00N 42°42' W 080°12'0 0.0 240 / 6 0.5-1.7 2.1
2018-Feb-18 21:00N 42°42' W 080°12'4 4.4 240 / 11 0.5-1.6 1.6
2018-Feb-18 20:00N 42°42' W 080°06'7 7.4 240 / 15 0.4-2.0 1.3
2018-Feb-18 19:00N 42°48' W 080°00'0 0.0 230 / 10 0.4-1.9 1.7
2018-Feb-18 18:00N 42°48' W 080°00'0 0.0 230 / 9 0.3-1.1
2018-Feb-18 17:00N 42°48' W 080°00'11 3.6 240 / 11 0.4-1.0 1.3
2018-Feb-18 14:00N 42°42' W 080°12'0 0.0 240 / 9 -1.1-1.1
2018-Feb-18 13:00N 42°42' W 080°12'0 0.0 240 / 13 -1.4-1.4
2018-Feb-18 11:00N 42°42' W 080°12'0 0.0 270 / 13 -1.2-1.3
2018-Feb-18 10:00N 42°42' W 080°12'0 0.0 260 / 15 -1.2-1.3
2018-Feb-18 09:00N 42°42' W 080°12'0 0.0 270 / 14 -1.3-1.4
2018-Feb-18 08:00N 42°42' W 080°12'0 0.0 270 / 12 -1.0-1.1
2018-Feb-18 07:00N 42°42' W 080°12'0 0.0 270 / 13 -1.1-1.1
2018-Feb-18 06:00N 42°42' W 080°12'0 0.0 260 / 13 -1.6-1.6
2018-Feb-18 05:00N 42°42' W 080°12'0 0.0 250 / 10 -1.7-1.8
2018-Feb-18 04:00N 42°42' W 080°12'0 0.0 230 / 13 -1.1-1.4
2018-Feb-18 03:00N 42°42' W 080°12'0 0.0 220 / 14 -1.0-1.7
2018-Feb-18 02:00N 42°42' W 080°12'0 0.0 200 / 16 -1.1-1.9
2018-Feb-18 01:00N 42°42' W 080°12'0 0.0 200 / 11 -0.8-3.2
2018-Feb-18 00:00N 42°42' W 080°12'0 0.0 230 / 9 -0.8-3.4
2018-Feb-17 23:00N 42°42' W 080°12'0 0.0 200 / 11 -1.0-3.8
2018-Feb-17 21:00N 42°42' W 080°12'0 0.0 190 / 14 -1.4-4.1
2018-Feb-17 20:00N 42°42' W 080°12'0 0.0 200 / 13 -1.5-4.5
2018-Feb-17 19:00N 42°42' W 080°12'0 0.0 190 / 14 -1.6-4.6
2018-Feb-17 18:00N 42°42' W 080°12'0 0.0 180 / 16 -1.7-4.5
2018-Feb-17 17:00N 42°42' W 080°12'0 0.0 190 / 15 -2.0-4.5
2018-Feb-17 16:00N 42°42' W 080°12'0 0.0 190 / 17 -2.4-4.9
2018-Feb-17 15:00N 42°42' W 080°12'0 0.0 190 / 15 -2.7-5.1
2018-Feb-17 14:00N 42°42' W 080°12'0 0.0 190 / 14 -2.4-4.6
2018-Feb-17 13:00N 42°42' W 080°12'0 0.0 200 / 14 -3.1-4.6
2018-Feb-17 12:00N 42°42' W 080°12'0 0.0 200 / 14 -2.9-4.4
2018-Feb-17 11:00N 42°42' W 080°12'0 0.0 210 / 15 -3.2-4.8
2018-Feb-17 10:00N 42°42' W 080°12'0 0.0 210 / 15 -3.5-5.1
2018-Feb-17 09:00N 42°42' W 080°12'0 0.0 200 / 15 -3.6-5.1
2018-Feb-17 08:00N 42°42' W 080°12'0 0.0 220 / 10 -3.8-5.2
2018-Feb-17 07:00N 42°42' W 080°12'0 0.0 210 / 12 -3.4-5.3
2018-Feb-17 06:00N 42°42' W 080°12'0 0.0 210 / 10 -3.1-6.1
2018-Feb-17 05:00N 42°42' W 080°12'0 0.0 220 / 10 -3.0-6.1
2018-Feb-17 04:00N 42°42' W 080°12'0 0.0 220 / 10 -3.0-5.6
2018-Feb-17 03:00N 42°42' W 080°12'0 0.0 260 / 7 -2.9-7.2
2018-Feb-17 02:00N 42°42' W 080°12'0 0.0 260 / 7 -3.0-7.0
2018-Feb-17 01:00N 42°42' W 080°12'0 0.0 280 / 8 -3.0-7.4
2018-Feb-17 00:00N 42°42' W 080°12'0 0.0 300 / 9 -2.9-7.7 2.3
2018-Feb-16 23:00N 42°42' W 080°12'0 0.0 320 / 15 -2.8-7.1 2.0
2018-Feb-16 22:00N 42°42' W 080°12'0 0.0 330 / 16 -2.6-6.2
2018-Feb-16 21:00N 42°42' W 080°12'1514.9 340 / 22 -2.0-4.2 1.2
2018-Feb-16 20:00N 42°30' W 080°00'11 5.3 320 / 13 -1.0-3.4 1.2
2018-Feb-16 18:00N 42°24' W 080°12'4 4.4 300 / 17 -0.1-0.3 1.2
2018-Feb-16 17:00N 42°24' W 080°18'7 7.5 290 / 14 -0.9-0.9 1.2
2018-Feb-16 16:00N 42°18' W 080°24'9 8.9 300 / 16 -1.0-1.0 1.2
2018-Feb-16 15:00N 42°18' W 080°36'9 4.4 320 / 21 -0.7-0.8 1.2
2018-Feb-16 13:00N 42°18' W 080°48'0 0.0 320 / 20 -0.5-0.5 2.1
2018-Feb-16 12:00N 42°18' W 080°48'0 0.0 320 / 19 -0.1-0.0 2.0
2018-Feb-16 11:00N 42°18' W 080°48'0 0.0 320 / 17 0.4 0.5
2018-Feb-16 10:00N 42°18' W 080°48'0 0.0 310 / 14 0.7 0.8
2018-Feb-16 09:00N 42°18' W 080°48'0 0.0 320 / 9 0.9 1.1
2018-Feb-16 08:00N 42°18' W 080°48'0 0.0 350 / 8 1.3 1.5
2018-Feb-16 07:00N 42°18' W 080°48'4 4.4 340 / 11 1.7 1.8
2018-Feb-16 06:00N 42°18' W 080°54'0 0.0 320 / 12 2.4 2.5
2018-Feb-16 05:00N 42°18' W 080°54'0 0.0 310 / 13 2.8 2.9
2018-Feb-16 04:00N 42°18' W 080°54'0 0.0 300 / 9 5.0 5.1
2018-Feb-16 03:00N 42°18' W 080°54'0 0.0 300 / 8 6.1 6.2 3.0
2018-Feb-16 02:00N 42°18' W 080°54'0 0.0 310 / 10 5.9 6.0 2.7
2018-Feb-16 01:00N 42°18' W 080°54'6 6.0 260 / 6 8.1 8.2 2.1
2018-Feb-16 00:00N 42°12' W 080°54'1514.6 260 / 12 9.910.0 1.3
2018-Feb-15 23:00N 42°06' W 081°12'9 8.9 210 / 15 6.4 6.5 1.3
2018-Feb-15 22:00N 42°06' W 081°24'1514.7 210 / 12 5.8 5.9 1.4
2018-Feb-15 21:00N 42°00' W 081°42'1110.8 230 / 10 5.7 5.7 1.4
2018-Feb-15 20:00N 41°54' W 081°54'1313.4 230 / 10 4.8 4.9 1.4
2018-Feb-15 19:00N 41°54' W 082°12'1110.8 220 / 9 5.0 5.1 1.4
2018-Feb-15 18:00N 41°48' W 082°24'1110.8 210 / 14 5.2 5.2 1.4
2018-Feb-15 17:00N 41°54' W 082°36'1313.4 210 / 15 9.6 9.7 1.5
2018-Feb-15 16:00N 41°54' W 082°54'11 5.4 230 / 14 5.5 5.6 1.3
2018-Feb-15 14:00N 42°00' W 083°06'6 6.0 240 / 14 5.4 5.5 1.5
2018-Feb-15 13:00N 42°06' W 083°06'0 0.0 230 / 8 6.6 6.6
2018-Feb-15 12:00N 42°06' W 083°06'0 0.0 220 / 8 5.7 5.7
2018-Feb-15 11:00N 42°06' W 083°06'0 0.0 200 / 8 3.8 3.8
2018-Feb-15 10:00N 42°06' W 083°06'0 0.0 200 / 7 2.6 2.6
2018-Feb-15 09:00N 42°06' W 083°06'0 0.0 200 / 10 2.4 2.3
2018-Feb-15 08:00N 42°06' W 083°06'0 0.0 200 / 11 2.3 2.3
2018-Feb-15 07:00N 42°06' W 083°06'0 0.0 190 / 9 1.9 1.9
2018-Feb-15 06:00N 42°06' W 083°06'0 0.0 210 / 7 1.8 1.8
2018-Feb-15 05:00N 42°06' W 083°06'0 0.0 200 / 12 2.4 2.4
2018-Feb-15 04:00N 42°06' W 083°06'0 0.0 200 / 9 1.6 1.6
2018-Feb-15 03:00N 42°06' W 083°06'0 0.0 190 / 5 3.4 3.4
2018-Feb-15 02:00N 42°06' W 083°06'0 0.0 200 / 8 1.7 1.7
2018-Feb-15 01:00N 42°06' W 083°06'0 0.0 200 / 9 1.6 1.5
2018-Feb-15 00:00N 42°06' W 083°06'0 0.0 200 / 10 1.9 1.9
2018-Feb-14 23:00N 42°06' W 083°06'0 0.0 200 / 12 2.0 1.5
2018-Feb-14 22:00N 42°06' W 083°06'0 0.0 210 / 10 2.4 0.9
2018-Feb-14 21:00N 42°06' W 083°06'0 0.0 210 / 10 2.2 0.7
2018-Feb-14 19:00N 42°06' W 083°06'0 0.0 200 / 10 2.4 0.7
2018-Feb-14 18:00N 42°06' W 083°06'0 0.0 200 / 11 2.3 0.8 1.8
2018-Feb-14 17:00N 42°06' W 083°06'0 0.0 210 / 12 2.2 0.5 1.7
2018-Feb-14 16:00N 42°06' W 083°06'0 0.0 210 / 9 1.4-0.0 1.7
2018-Feb-14 15:00N 42°06' W 083°06'1212.0 210 / 12 0.3-0.3 1.2
2018-Feb-14 14:00N 41°54' W 083°06'1313.4 210 / 12 -0.2-0.8 1.2
2018-Feb-14 13:00N 41°54' W 082°48'9 8.9 240 / 12 0.1-0.4 1.2
2018-Feb-14 12:00N 41°54' W 082°36'1110.8 230 / 11 0.9-0.4 1.3
2018-Feb-14 11:00N 41°48' W 082°24'7 7.5 250 / 16 1.0-0.1 1.2
2018-Feb-14 10:00N 41°54' W 082°18'1313.4 240 / 16 0.1-0.9 1.2
2018-Feb-14 09:00N 41°54' W 082°00'1110.8 230 / 11 -0.8-1.6 1.2
2018-Feb-14 08:00N 42°00' W 081°48'1514.7 220 / 12 -1.4-2.7 1.2
2018-Feb-14 07:00N 42°06' W 081°30'1110.7 250 / 12 -0.2-2.1 1.2
2018-Feb-14 06:00N 42°12' W 081°18'1817.8 240 / 13 1.0-2.0 1.2
2018-Feb-14 05:00N 42°12' W 080°54'1110.7 200 / 5 -1.3-4.0 1.2
2018-Feb-14 04:00N 42°18' W 080°42'9 8.9 020 / 9 -3.3-4.4 1.2
2018-Feb-14 03:00N 42°18' W 080°30'1110.7 090 / 6 -3.9-5.8 1.2
2018-Feb-14 02:00N 42°24' W 080°18'1110.7 100 / 6 -3.5-5.8 1.1
2018-Feb-14 01:00N 42°30' W 080°06'1212.0 090 / 4 -2.9-6.1 1.2
2018-Feb-14 00:00N 42°42' W 080°06'7 7.4 050 / 5 -2.6-8.4 1.2
2018-Feb-13 23:00N 42°48' W 080°00'0 0.0 050 / 6 -2.8-9.2 1.3
2018-Feb-13 22:00N 42°48' W 080°00'7 7.4 050 / 9 -2.7-8.9 1.2
2018-Feb-13 21:00N 42°42' W 080°06'1312.8 070 / 15 -3.5-7.2 1.1
2018-Feb-13 20:00N 42°30' W 080°00'9 8.8 060 / 12 -4.5-7.3 1.2
2018-Feb-13 19:00N 42°30' W 080°12'7 7.5 060 / 11 -5.0-8.1 1.1
2018-Feb-13 18:00N 42°24' W 080°18'0 0.0 080 / 11 -5.6-8.8 1.1
2018-Feb-13 17:00N 42°24' W 080°18'4 4.4 080 / 12 -6.7-9.0 1.1
2018-Feb-13 16:00N 42°24' W 080°24'7 7.5 090 / 13 -8.1-10.3 1.1
2018-Feb-13 15:00N 42°18' W 080°30'9 8.9 100 / 7 -9.0-11.0 1.1
2018-Feb-13 14:00N 42°18' W 080°42'7 7.5 090 / 8 -10.1-11.6 1.1
2018-Feb-13 13:00N 42°12' W 080°48'4 4.4 140 / 5 -10.2-12.1 1.2
2018-Feb-13 12:00N 42°12' W 080°54'0 0.0 100 / 8 -9.0-11.5
2018-Feb-13 11:00N 42°12' W 080°54'0 0.0 100 / 8 -9.4-11.8
2018-Feb-13 10:00N 42°12' W 080°54'0 0.0 080 / 6 -9.5-11.5 2.3
2018-Feb-13 09:00N 42°12' W 080°54'0 0.0 060 / 5 -8.5-11.8
2018-Feb-13 08:00N 42°12' W 080°54'0 0.0 070 / 5 -8.3-12.4
2018-Feb-13 07:00N 42°12' W 080°54'0 0.0 050 / 3 -7.5-12.1
2018-Feb-13 06:00N 42°12' W 080°54'0 0.0 020 / 5 -7.3-12.5
2018-Feb-13 05:00N 42°12' W 080°54'0 0.0 020 / 5 -7.2-13.3
2018-Feb-13 04:00N 42°12' W 080°54'1514.6 050 / 5 -7.5-11.7 1.0
2018-Feb-13 03:00N 42°06' W 081°12'9 8.9 070 / 7 -7.3-10.4 1.0
2018-Feb-13 02:00N 42°06' W 081°24'1514.7 080 / 8 -7.0-9.9 1.0
2018-Feb-13 01:00N 42°00' W 081°42'1110.8 090 / 8 -5.6-9.8 1.1
2018-Feb-13 00:00N 41°54' W 081°54'9 8.9 150 / 3 -5.2-9.4 1.1
2018-Feb-12 23:00N 41°54' W 082°06'1110.8 110 / 4 -5.1-9.5 1.1
2018-Feb-12 22:00N 41°48' W 082°18'1514.7 140 / 4 -4.6-9.2 1.1
2018-Feb-12 21:00N 41°54' W 082°36'18 8.9 120 / 2 -4.6-9.0 1.2
2018-Feb-12 19:00N 41°54' W 083°00'7 7.5 220 / 2 -4.5-9.0 1.1
2018-Feb-12 18:00N 42°00' W 083°06'1212.0 210 / 1 -4.1-9.6 1.1
2018-Feb-12 17:00N 42°12' W 083°06'6 6.0 360 / 5 -4.4-9.9 1.1
2018-Feb-12 16:00N 42°06' W 083°06'0 0.0 020 / 9 -5.3-10.0 1.0
2018-Feb-12 15:00N 42°06' W 083°06'0 0.0 320 / 6 -6.0-9.1 1.0
2018-Feb-12 14:00N 42°06' W 083°06'0 0.0 310 / 3 -7.4-9.1
2018-Feb-12 13:00N 42°06' W 083°06'0 0.0 250 / 5 -8.4-9.7
2018-Feb-12 11:00N 42°06' W 083°06'0 0.0 250 / 3 -7.5-9.0
2018-Feb-12 10:00N 42°06' W 083°06'0 0.0 240 / 3 -6.9-8.7
2018-Feb-12 09:00N 42°06' W 083°06'0 0.0 240 / 3 -6.1-8.3
2018-Feb-12 08:00N 42°06' W 083°06'   270 / 4 -5.2-7.9
Track history (hours):
 
Tides and Currents Weather Stations Pressure Air Temp Water Temp Dewpoint Dewpoint Depression Visibility Wind Speed Wind Dir Waves Ship Positions

CCGS Griffon (Canada)

Light Icebreaker - Major Navaids Tender

Last reported at 2018-Feb-22 08:00 UTC. Time now 2018-Feb-22 09:07 UTC.
Position N 42°48' W 080°00'.

Length 71.32 m; beam 14.94 m; draft 4.7 m.

Type: SAR. MMSI: 316286000.

Wind from 020 at 9 knots

Air temperature -0.9 ° C
Dewpoint -1.2 ° C

Date/timePositionNaut miles runAvg speedWind from/ knotsBaromVisibWave heightAir tempDewpointWater temp
2018-Feb-22 08:00N 42°48' W 080°00'0 0.0 020 / 9 -0.9-1.2
2018-Feb-22 07:00N 42°48' W 080°00'0 0.0 020 / 11 -0.9-1.4
2018-Feb-22 06:00N 42°48' W 080°00'0 0.0 010 / 11 -0.8-1.2
2018-Feb-22 05:00N 42°48' W 080°00'0 0.0 360 / 10 -0.6-1.2
2018-Feb-22 04:00N 42°48' W 080°00'0 0.0 010 / 10 -0.3-1.4
2018-Feb-22 03:00N 42°48' W 080°00'0 0.0 010 / 8 0.1-1.0
2018-Feb-22 02:00N 42°48' W 080°00'0 0.0 010 / 5 0.3-0.0
2018-Feb-22 01:00N 42°48' W 080°00'0 0.0 350 / 4 2.0 1.6
2018-Feb-22 00:00N 42°48' W 080°00'0 0.0 360 / 3 1.7 1.6
2018-Feb-21 23:00N 42°48' W 080°00'0 0.0 300 / 1 3.1 2.9
2018-Feb-21 22:00N 42°48' W 080°00'0 0.0 340 / 2 3.2 3.0
2018-Feb-21 21:00N 42°48' W 080°00'0 0.0 320 / 2 3.3 3.2
2018-Feb-21 20:00N 42°48' W 080°00'0 0.0 300 / 2 3.1 3.0
2018-Feb-21 19:00N 42°48' W 080°00'0 0.0 340 / 3 2.9 2.9
2018-Feb-21 18:00N 42°48' W 080°00'0 0.0 330 / 5 3.5 3.5
2018-Feb-21 17:00N 42°48' W 080°00'0 0.0 350 / 11 3.3 3.4
2018-Feb-21 16:00N 42°48' W 080°00'0 0.0 360 / 13 3.4 3.5
2018-Feb-21 15:00N 42°48' W 080°00'0 0.0 350 / 10 4.5 4.7
2018-Feb-21 14:00N 42°48' W 080°00'0 0.0 350 / 11 9.0 9.3
2018-Feb-21 13:00N 42°48' W 080°00'0 0.0 340 / 3 12.412.9
2018-Feb-21 12:00N 42°48' W 080°00'0 0.0 320 / 4 13.513.9
2018-Feb-21 11:00N 42°48' W 080°00'0 0.0 280 / 8 7.1 7.4
2018-Feb-21 10:00N 42°48' W 080°00'0 0.0 240 / 3 5.4 5.6
2018-Feb-21 09:00N 42°48' W 080°00'0 0.0 270 / 5 6.3 6.6
2018-Feb-21 08:00N 42°48' W 080°00'0 0.0 240 / 5 7.2 7.5
2018-Feb-21 07:00N 42°48' W 080°00'0 0.0 280 / 12 9.4 9.8
2018-Feb-21 06:00N 42°48' W 080°00'0 0.0 280 / 12 9.4 9.8
2018-Feb-21 05:00N 42°48' W 080°00'0 0.0 260 / 11 8.1 8.5
2018-Feb-21 04:00N 42°48' W 080°00'0 0.0 240 / 15 9.510.0
2018-Feb-21 03:00N 42°48' W 080°00'0 0.0 260 / 10 7.3 7.9
2018-Feb-21 02:00N 42°48' W 080°00'0 0.0 240 / 9 8.1 8.7 3.0
2018-Feb-21 01:00N 42°48' W 080°00'0 0.0 240 / 5 9.710.4 2.2
2018-Feb-21 00:00N 42°48' W 080°00'7 7.4 240 / 5 8.4 9.0 1.5
2018-Feb-20 23:00N 42°42' W 079°54'1110.7 220 / 16 8.6 9.1 1.5
2018-Feb-20 22:00N 42°48' W 079°42'7 7.4 240 / 14 6.3 6.7 1.5
2018-Feb-20 21:00N 42°54' W 079°36'0 0.0 250 / 16 7.4 7.8
2018-Feb-20 20:00N 42°54' W 079°36'0 0.0 240 / 14 6.7 7.1 1.6
2018-Feb-20 19:00N 42°54' W 079°36'0 0.0 240 / 15 7.1 7.4 1.5
2018-Feb-20 18:00N 42°54' W 079°36'6 6.0 240 / 11 9.2 9.5 1.4
2018-Feb-20 17:00N 42°48' W 079°36'0 0.0 260 / 14 6.2 6.5
2018-Feb-20 16:00N 42°48' W 079°36'0 0.0 220 / 9 8.0 8.3 1.4
2018-Feb-20 15:00N 42°48' W 079°36'0 0.0 240 / 10 6.8 7.1
2018-Feb-20 14:00N 42°48' W 079°36'0 0.0 200 / 5 7.5 7.7
2018-Feb-20 13:00N 42°48' W 079°36'0 0.0 240 / 7 6.9 7.1
2018-Feb-20 12:00N 42°48' W 079°36'0 0.0 260 / 11 6.1 6.3
2018-Feb-20 11:00N 42°48' W 079°36'0 0.0 260 / 10 5.7 5.9
2018-Feb-20 10:00N 42°48' W 079°36'0 0.0 200 / 4 7.2 7.4
2018-Feb-20 09:00N 42°48' W 079°36'0 0.0 210 / 2 6.1 6.3
2018-Feb-20 08:00N 42°48' W 079°36'0 0.0 200 / 4 7.2 7.3
2018-Feb-20 07:00N 42°48' W 079°36'0 0.0 210 / 5 7.2 7.4
2018-Feb-20 06:00N 42°48' W 079°36'0 0.0 230 / 10 9.6 9.7
2018-Feb-20 05:00N 42°48' W 079°36'0 0.0 260 / 16 9.1 9.3
2018-Feb-20 04:00N 42°48' W 079°36'0 0.0 200 / 6 7.2 7.3
2018-Feb-20 03:00N 42°48' W 079°36'0 0.0 200 / 4 6.8 6.9
2018-Feb-20 02:00N 42°48' W 079°36'0 0.0 200 / 4 7.4 7.6
2018-Feb-20 01:00N 42°48' W 079°36'0 0.0 200 / 5 6.5 6.6
2018-Feb-20 00:00N 42°48' W 079°36'0 0.0 200 / 5 6.7 6.8
2018-Feb-19 23:00N 42°48' W 079°36'0 0.0 240 / 4 6.3 6.4
2018-Feb-19 22:00N 42°48' W 079°36'0 0.0 190 / 3 4.7 4.8
2018-Feb-19 21:00N 42°48' W 079°36'0 0.0 190 / 3 4.8 4.9
2018-Feb-19 20:00N 42°48' W 079°36'0 0.0 190 / 4 4.1 4.1 2.1
2018-Feb-19 19:00N 42°48' W 079°36'0 0.0 250 / 8 3.5 3.4 1.7
2018-Feb-19 18:00N 42°48' W 079°36'4 4.4 200 / 9 3.4 3.4 1.3
2018-Feb-19 17:00N 42°48' W 079°30'4 4.4 200 / 18 3.5 3.5 1.3
2018-Feb-19 16:00N 42°48' W 079°36'1110.7 200 / 14 3.0 2.9 1.3
2018-Feb-19 15:00N 42°42' W 079°48'1313.2 210 / 16 3.3 3.0 1.4
2018-Feb-19 14:00N 42°42' W 080°06'4 4.4 200 / 20 3.7 2.4 1.4
2018-Feb-19 13:00N 42°42' W 080°12'0 0.0 200 / 12 3.8 1.1
2018-Feb-19 12:00N 42°42' W 080°12'0 0.0 220 / 6 2.7-0.3
2018-Feb-19 11:00N 42°42' W 080°12'0 0.0 210 / 3 2.2-0.6
2018-Feb-19 10:00N 42°42' W 080°12'0 0.0 240 / 3 2.1-0.6
2018-Feb-19 09:00N 42°42' W 080°12'0 0.0 230 / 5 1.7-0.8
2018-Feb-19 08:00N 42°42' W 080°12'0 0.0 190 / 7 1.4-0.8
2018-Feb-19 07:00N 42°42' W 080°12'0 0.0 150 / 7 0.8-0.6
2018-Feb-19 06:00N 42°42' W 080°12'0 0.0 160 / 10 0.8-0.8
2018-Feb-19 05:00N 42°42' W 080°12'0 0.0 160 / 13 1.1-0.6
2018-Feb-19 04:00N 42°42' W 080°12'0 0.0 160 / 13 0.9-0.9
2018-Feb-19 03:00N 42°42' W 080°12'0 0.0 140 / 15 -0.0-1.3
2018-Feb-19 02:00N 42°42' W 080°12'0 0.0 140 / 16 -0.4-1.7
2018-Feb-19 01:00N 42°42' W 080°12'0 0.0 130 / 12 -0.2-0.8
2018-Feb-19 00:00N 42°42' W 080°12'0 0.0 130 / 6 -0.0-1.7
2018-Feb-18 23:00N 42°42' W 080°12'0 0.0 200 / 2 0.2-1.9 2.4
2018-Feb-18 22:00N 42°42' W 080°12'0 0.0 240 / 6 0.5-1.7 2.1
2018-Feb-18 21:00N 42°42' W 080°12'4 4.4 240 / 11 0.5-1.6 1.6
2018-Feb-18 20:00N 42°42' W 080°06'7 7.4 240 / 15 0.4-2.0 1.3
2018-Feb-18 19:00N 42°48' W 080°00'0 0.0 230 / 10 0.4-1.9 1.7
2018-Feb-18 18:00N 42°48' W 080°00'0 0.0 230 / 9 0.3-1.1
2018-Feb-18 17:00N 42°48' W 080°00'11 3.6 240 / 11 0.4-1.0 1.3
2018-Feb-18 14:00N 42°42' W 080°12'0 0.0 240 / 9 -1.1-1.1
2018-Feb-18 13:00N 42°42' W 080°12'0 0.0 240 / 13 -1.4-1.4
2018-Feb-18 11:00N 42°42' W 080°12'0 0.0 270 / 13 -1.2-1.3
2018-Feb-18 10:00N 42°42' W 080°12'0 0.0 260 / 15 -1.2-1.3
2018-Feb-18 09:00N 42°42' W 080°12'0 0.0 270 / 14 -1.3-1.4
2018-Feb-18 08:00N 42°42' W 080°12'0 0.0 270 / 12 -1.0-1.1
2018-Feb-18 07:00N 42°42' W 080°12'0 0.0 270 / 13 -1.1-1.1
2018-Feb-18 06:00N 42°42' W 080°12'0 0.0 260 / 13 -1.6-1.6
2018-Feb-18 05:00N 42°42' W 080°12'0 0.0 250 / 10 -1.7-1.8
2018-Feb-18 04:00N 42°42' W 080°12'0 0.0 230 / 13 -1.1-1.4
2018-Feb-18 03:00N 42°42' W 080°12'0 0.0 220 / 14 -1.0-1.7
2018-Feb-18 02:00N 42°42' W 080°12'0 0.0 200 / 16 -1.1-1.9
2018-Feb-18 01:00N 42°42' W 080°12'0 0.0 200 / 11 -0.8-3.2
2018-Feb-18 00:00N 42°42' W 080°12'0 0.0 230 / 9 -0.8-3.4
2018-Feb-17 23:00N 42°42' W 080°12'0 0.0 200 / 11 -1.0-3.8
2018-Feb-17 21:00N 42°42' W 080°12'0 0.0 190 / 14 -1.4-4.1
2018-Feb-17 20:00N 42°42' W 080°12'0 0.0 200 / 13 -1.5-4.5
2018-Feb-17 19:00N 42°42' W 080°12'0 0.0 190 / 14 -1.6-4.6
2018-Feb-17 18:00N 42°42' W 080°12'0 0.0 180 / 16 -1.7-4.5
2018-Feb-17 17:00N 42°42' W 080°12'0 0.0 190 / 15 -2.0-4.5
2018-Feb-17 16:00N 42°42' W 080°12'0 0.0 190 / 17 -2.4-4.9
2018-Feb-17 15:00N 42°42' W 080°12'0 0.0 190 / 15 -2.7-5.1
2018-Feb-17 14:00N 42°42' W 080°12'0 0.0 190 / 14 -2.4-4.6
2018-Feb-17 13:00N 42°42' W 080°12'0 0.0 200 / 14 -3.1-4.6
2018-Feb-17 12:00N 42°42' W 080°12'0 0.0 200 / 14 -2.9-4.4
2018-Feb-17 11:00N 42°42' W 080°12'0 0.0 210 / 15 -3.2-4.8
2018-Feb-17 10:00N 42°42' W 080°12'0 0.0 210 / 15 -3.5-5.1
2018-Feb-17 09:00N 42°42' W 080°12'0 0.0 200 / 15 -3.6-5.1
2018-Feb-17 08:00N 42°42' W 080°12'0 0.0 220 / 10 -3.8-5.2
2018-Feb-17 07:00N 42°42' W 080°12'0 0.0 210 / 12 -3.4-5.3
2018-Feb-17 06:00N 42°42' W 080°12'0 0.0 210 / 10 -3.1-6.1
2018-Feb-17 05:00N 42°42' W 080°12'0 0.0 220 / 10 -3.0-6.1
2018-Feb-17 04:00N 42°42' W 080°12'0 0.0 220 / 10 -3.0-5.6
2018-Feb-17 03:00N 42°42' W 080°12'0 0.0 260 / 7 -2.9-7.2
2018-Feb-17 02:00N 42°42' W 080°12'0 0.0 260 / 7 -3.0-7.0
2018-Feb-17 01:00N 42°42' W 080°12'0 0.0 280 / 8 -3.0-7.4
2018-Feb-17 00:00N 42°42' W 080°12'0 0.0 300 / 9 -2.9-7.7 2.3
2018-Feb-16 23:00N 42°42' W 080°12'0 0.0 320 / 15 -2.8-7.1 2.0
2018-Feb-16 22:00N 42°42' W 080°12'0 0.0 330 / 16 -2.6-6.2
2018-Feb-16 21:00N 42°42' W 080°12'1514.9 340 / 22 -2.0-4.2 1.2
2018-Feb-16 20:00N 42°30' W 080°00'11 5.3 320 / 13 -1.0-3.4 1.2
2018-Feb-16 18:00N 42°24' W 080°12'4 4.4 300 / 17 -0.1-0.3 1.2
2018-Feb-16 17:00N 42°24' W 080°18'7 7.5 290 / 14 -0.9-0.9 1.2
2018-Feb-16 16:00N 42°18' W 080°24'9 8.9 300 / 16 -1.0-1.0 1.2
2018-Feb-16 15:00N 42°18' W 080°36'9 4.4 320 / 21 -0.7-0.8 1.2
2018-Feb-16 13:00N 42°18' W 080°48'0 0.0 320 / 20 -0.5-0.5 2.1
2018-Feb-16 12:00N 42°18' W 080°48'0 0.0 320 / 19 -0.1-0.0 2.0
2018-Feb-16 11:00N 42°18' W 080°48'0 0.0 320 / 17 0.4 0.5
2018-Feb-16 10:00N 42°18' W 080°48'0 0.0 310 / 14 0.7 0.8
2018-Feb-16 09:00N 42°18' W 080°48'0 0.0 320 / 9 0.9 1.1
2018-Feb-16 08:00N 42°18' W 080°48'0 0.0 350 / 8 1.3 1.5
2018-Feb-16 07:00N 42°18' W 080°48'4 4.4 340 / 11 1.7 1.8
2018-Feb-16 06:00N 42°18' W 080°54'0 0.0 320 / 12 2.4 2.5
2018-Feb-16 05:00N 42°18' W 080°54'0 0.0 310 / 13 2.8 2.9
2018-Feb-16 04:00N 42°18' W 080°54'0 0.0 300 / 9 5.0 5.1
2018-Feb-16 03:00N 42°18' W 080°54'0 0.0 300 / 8 6.1 6.2 3.0
2018-Feb-16 02:00N 42°18' W 080°54'0 0.0 310 / 10 5.9 6.0 2.7
2018-Feb-16 01:00N 42°18' W 080°54'6 6.0 260 / 6 8.1 8.2 2.1
2018-Feb-16 00:00N 42°12' W 080°54'1514.6 260 / 12 9.910.0 1.3
2018-Feb-15 23:00N 42°06' W 081°12'9 8.9 210 / 15 6.4 6.5 1.3
2018-Feb-15 22:00N 42°06' W 081°24'1514.7 210 / 12 5.8 5.9 1.4
2018-Feb-15 21:00N 42°00' W 081°42'1110.8 230 / 10 5.7 5.7 1.4
2018-Feb-15 20:00N 41°54' W 081°54'1313.4 230 / 10 4.8 4.9 1.4
2018-Feb-15 19:00N 41°54' W 082°12'1110.8 220 / 9 5.0 5.1 1.4
2018-Feb-15 18:00N 41°48' W 082°24'1110.8 210 / 14 5.2 5.2 1.4
2018-Feb-15 17:00N 41°54' W 082°36'1313.4 210 / 15 9.6 9.7 1.5
2018-Feb-15 16:00N 41°54' W 082°54'11 5.4 230 / 14 5.5 5.6 1.3
2018-Feb-15 14:00N 42°00' W 083°06'6 6.0 240 / 14 5.4 5.5 1.5
2018-Feb-15 13:00N 42°06' W 083°06'0 0.0 230 / 8 6.6 6.6
2018-Feb-15 12:00N 42°06' W 083°06'0 0.0 220 / 8 5.7 5.7
2018-Feb-15 11:00N 42°06' W 083°06'0 0.0 200 / 8 3.8 3.8
2018-Feb-15 10:00N 42°06' W 083°06'0 0.0 200 / 7 2.6 2.6
2018-Feb-15 09:00N 42°06' W 083°06'0 0.0 200 / 10 2.4 2.3
2018-Feb-15 08:00N 42°06' W 083°06'0 0.0 200 / 11 2.3 2.3
2018-Feb-15 07:00N 42°06' W 083°06'0 0.0 190 / 9 1.9 1.9
2018-Feb-15 06:00N 42°06' W 083°06'0 0.0 210 / 7 1.8 1.8
2018-Feb-15 05:00N 42°06' W 083°06'0 0.0 200 / 12 2.4 2.4
2018-Feb-15 04:00N 42°06' W 083°06'0 0.0 200 / 9 1.6 1.6
2018-Feb-15 03:00N 42°06' W 083°06'0 0.0 190 / 5 3.4 3.4
2018-Feb-15 02:00N 42°06' W 083°06'0 0.0 200 / 8 1.7 1.7
2018-Feb-15 01:00N 42°06' W 083°06'0 0.0 200 / 9 1.6 1.5
2018-Feb-15 00:00N 42°06' W 083°06'0 0.0 200 / 10 1.9 1.9
2018-Feb-14 23:00N 42°06' W 083°06'0 0.0 200 / 12 2.0 1.5
2018-Feb-14 22:00N 42°06' W 083°06'0 0.0 210 / 10 2.4 0.9
2018-Feb-14 21:00N 42°06' W 083°06'0 0.0 210 / 10 2.2 0.7
2018-Feb-14 19:00N 42°06' W 083°06'0 0.0 200 / 10 2.4 0.7
2018-Feb-14 18:00N 42°06' W 083°06'0 0.0 200 / 11 2.3 0.8 1.8
2018-Feb-14 17:00N 42°06' W 083°06'0 0.0 210 / 12 2.2 0.5 1.7
2018-Feb-14 16:00N 42°06' W 083°06'0 0.0 210 / 9 1.4-0.0 1.7
2018-Feb-14 15:00N 42°06' W 083°06'1212.0 210 / 12 0.3-0.3 1.2
2018-Feb-14 14:00N 41°54' W 083°06'1313.4 210 / 12 -0.2-0.8 1.2
2018-Feb-14 13:00N 41°54' W 082°48'9 8.9 240 / 12 0.1-0.4 1.2
2018-Feb-14 12:00N 41°54' W 082°36'1110.8 230 / 11 0.9-0.4 1.3
2018-Feb-14 11:00N 41°48' W 082°24'7 7.5 250 / 16 1.0-0.1 1.2
2018-Feb-14 10:00N 41°54' W 082°18'1313.4 240 / 16 0.1-0.9 1.2
2018-Feb-14 09:00N 41°54' W 082°00'1110.8 230 / 11 -0.8-1.6 1.2
2018-Feb-14 08:00N 42°00' W 081°48'1514.7 220 / 12 -1.4-2.7 1.2
2018-Feb-14 07:00N 42°06' W 081°30'1110.7 250 / 12 -0.2-2.1 1.2
2018-Feb-14 06:00N 42°12' W 081°18'1817.8 240 / 13 1.0-2.0 1.2
2018-Feb-14 05:00N 42°12' W 080°54'1110.7 200 / 5 -1.3-4.0 1.2
2018-Feb-14 04:00N 42°18' W 080°42'9 8.9 020 / 9 -3.3-4.4 1.2
2018-Feb-14 03:00N 42°18' W 080°30'1110.7 090 / 6 -3.9-5.8 1.2
2018-Feb-14 02:00N 42°24' W 080°18'1110.7 100 / 6 -3.5-5.8 1.1
2018-Feb-14 01:00N 42°30' W 080°06'1212.0 090 / 4 -2.9-6.1 1.2
2018-Feb-14 00:00N 42°42' W 080°06'7 7.4 050 / 5 -2.6-8.4 1.2
2018-Feb-13 23:00N 42°48' W 080°00'0 0.0 050 / 6 -2.8-9.2 1.3
2018-Feb-13 22:00N 42°48' W 080°00'7 7.4 050 / 9 -2.7-8.9 1.2
2018-Feb-13 21:00N 42°42' W 080°06'1312.8 070 / 15 -3.5-7.2 1.1
2018-Feb-13 20:00N 42°30' W 080°00'9 8.8 060 / 12 -4.5-7.3 1.2
2018-Feb-13 19:00N 42°30' W 080°12'7 7.5 060 / 11 -5.0-8.1 1.1
2018-Feb-13 18:00N 42°24' W 080°18'0 0.0 080 / 11 -5.6-8.8 1.1
2018-Feb-13 17:00N 42°24' W 080°18'4 4.4 080 / 12 -6.7-9.0 1.1
2018-Feb-13 16:00N 42°24' W 080°24'7 7.5 090 / 13 -8.1-10.3 1.1
2018-Feb-13 15:00N 42°18' W 080°30'9 8.9 100 / 7 -9.0-11.0 1.1
2018-Feb-13 14:00N 42°18' W 080°42'7 7.5 090 / 8 -10.1-11.6 1.1
2018-Feb-13 13:00N 42°12' W 080°48'4 4.4 140 / 5 -10.2-12.1 1.2
2018-Feb-13 12:00N 42°12' W 080°54'0 0.0 100 / 8 -9.0-11.5
2018-Feb-13 11:00N 42°12' W 080°54'0 0.0 100 / 8 -9.4-11.8
2018-Feb-13 10:00N 42°12' W 080°54'0 0.0 080 / 6 -9.5-11.5 2.3
2018-Feb-13 09:00N 42°12' W 080°54'0 0.0 060 / 5 -8.5-11.8
2018-Feb-13 08:00N 42°12' W 080°54'0 0.0 070 / 5 -8.3-12.4
2018-Feb-13 07:00N 42°12' W 080°54'0 0.0 050 / 3 -7.5-12.1
2018-Feb-13 06:00N 42°12' W 080°54'0 0.0 020 / 5 -7.3-12.5
2018-Feb-13 05:00N 42°12' W 080°54'0 0.0 020 / 5 -7.2-13.3
2018-Feb-13 04:00N 42°12' W 080°54'1514.6 050 / 5 -7.5-11.7 1.0
2018-Feb-13 03:00N 42°06' W 081°12'9 8.9 070 / 7 -7.3-10.4 1.0
2018-Feb-13 02:00N 42°06' W 081°24'1514.7 080 / 8 -7.0-9.9 1.0
2018-Feb-13 01:00N 42°00' W 081°42'1110.8 090 / 8 -5.6-9.8 1.1
2018-Feb-13 00:00N 41°54' W 081°54'9 8.9 150 / 3 -5.2-9.4 1.1
2018-Feb-12 23:00N 41°54' W 082°06'1110.8 110 / 4 -5.1-9.5 1.1
2018-Feb-12 22:00N 41°48' W 082°18'1514.7 140 / 4 -4.6-9.2 1.1
2018-Feb-12 21:00N 41°54' W 082°36'18 8.9 120 / 2 -4.6-9.0 1.2
2018-Feb-12 19:00N 41°54' W 083°00'7 7.5 220 / 2 -4.5-9.0 1.1
2018-Feb-12 18:00N 42°00' W 083°06'1212.0 210 / 1 -4.1-9.6 1.1
2018-Feb-12 17:00N 42°12' W 083°06'6 6.0 360 / 5 -4.4-9.9 1.1
2018-Feb-12 16:00N 42°06' W 083°06'0 0.0 020 / 9 -5.3-10.0 1.0
2018-Feb-12 15:00N 42°06' W 083°06'0 0.0 320 / 6 -6.0-9.1 1.0
2018-Feb-12 14:00N 42°06' W 083°06'0 0.0 310 / 3 -7.4-9.1
2018-Feb-12 13:00N 42°06' W 083°06'0 0.0 250 / 5 -8.4-9.7
2018-Feb-12 11:00N 42°06' W 083°06'0 0.0 250 / 3 -7.5-9.0
2018-Feb-12 10:00N 42°06' W 083°06'0 0.0 240 / 3 -6.9-8.7
2018-Feb-12 09:00N 42°06' W 083°06'0 0.0 240 / 3 -6.1-8.3
2018-Feb-12 08:00N 42°06' W 083°06'   270 / 4 -5.2-7.9

Dump ship's entire track history